Time;durP1;ratioP1;P1;durP2;ratioP2;P2;SDS_P1;SDS_P2;PMS_P1;PMS_P2;Temp;Humidity;BMP_temperature;BMP_pressure;BME280_temperature;BME280_humidity;BME280_pressure;Samples;Min_cycle;Max_cycle;Signal;HPM_P1;HPM_P2
2024/03/26 00:02:24;;;;;;;5.30;1.50;;;7.90;69.40;;;;;;5031621;28;20483;-77
2024/03/26 00:04:50;;;;;;;7.03;1.40;;;7.90;69.40;;;;;;5032802;28;20367;-77
2024/03/26 00:07:16;;;;;;;7.60;1.97;;;8.00;69.40;;;;;;5031421;28;20040;-77
2024/03/26 00:09:42;;;;;;;7.57;1.93;;;7.90;69.40;;;;;;5032663;28;20478;-77
2024/03/26 00:12:07;;;;;;;8.83;2.10;;;7.90;69.50;;;;;;5032789;28;20053;-77
2024/03/26 00:14:33;;;;;;;7.60;1.80;;;7.80;69.40;;;;;;5032886;28;20493;-77
2024/03/26 00:16:59;;;;;;;4.73;1.77;;;7.80;69.60;;;;;;5032724;28;20034;-76
2024/03/26 00:19:24;;;;;;;6.53;2.10;;;7.80;69.60;;;;;;5032676;28;20025;-77
2024/03/26 00:21:50;;;;;;;7.57;2.53;;;7.80;69.80;;;;;;5032819;28;20481;-77
2024/03/26 00:24:15;;;;;;;4.20;1.70;;;7.80;69.90;;;;;;5031150;28;20026;-77
2024/03/26 00:26:41;;;;;;;6.60;1.60;;;7.80;70.10;;;;;;5031138;28;20045;-76
2024/03/26 00:29:06;;;;;;;7.07;1.83;;;7.80;70.10;;;;;;5032521;28;20033;-77
2024/03/26 00:31:35;;;;;;;7.73;2.20;;;7.70;70.10;;;;;;5032335;28;20083;-77
2024/03/26 00:34:02;;;;;;;7.13;1.90;;;7.70;70.10;;;;;;5032177;28;20025;-77
2024/03/26 00:36:28;;;;;;;7.23;1.93;;;7.70;70.20;;;;;;5032564;28;20021;-77
2024/03/26 00:38:54;;;;;;;6.37;2.10;;;7.70;70.30;;;;;;5031238;28;20025;-77
2024/03/26 00:41:22;;;;;;;5.57;1.50;;;7.60;70.90;;;;;;5032728;28;20068;-78
2024/03/26 00:43:48;;;;;;;6.93;1.67;;;7.60;70.40;;;;;;5032468;28;20045;-77
2024/03/26 00:46:14;;;;;;;9.20;1.93;;;7.60;70.50;;;;;;5032497;28;20478;-77
2024/03/26 00:48:40;;;;;;;5.93;1.73;;;7.50;70.50;;;;;;5032587;28;20036;-77
2024/03/26 00:51:06;;;;;;;5.50;1.50;;;7.50;70.50;;;;;;5032965;28;20083;-76
2024/03/26 00:53:32;;;;;;;8.60;1.93;;;7.50;70.70;;;;;;5031052;28;20428;-77
2024/03/26 00:55:58;;;;;;;5.80;1.57;;;7.50;70.60;;;;;;5032344;28;20029;-77
2024/03/26 00:58:23;;;;;;;8.13;1.80;;;7.50;70.70;;;;;;5032421;28;20375;-77
2024/03/26 01:00:49;;;;;;;9.07;1.80;;;7.50;71.50;;;;;;5031242;28;20025;-77
2024/03/26 01:03:15;;;;;;;6.70;1.50;;;7.50;70.90;;;;;;5032125;28;20032;-77
2024/03/26 01:05:49;;;;;;;7.53;1.73;;;7.50;71.10;;;;;;5032090;28;20448;-77
2024/03/26 01:08:15;;;;;;;5.57;1.60;;;7.40;71.00;;;;;;5034667;28;20104;-77
2024/03/26 01:10:41;;;;;;;4.67;1.80;;;7.40;71.00;;;;;;5035947;28;20155;-77
2024/03/26 01:13:07;;;;;;;6.07;1.70;;;7.30;71.00;;;;;;5034670;28;20397;-77
2024/03/26 01:15:32;;;;;;;7.17;1.53;;;7.40;71.10;;;;;;5034759;28;20041;-77
2024/03/26 01:17:58;;;;;;;6.33;1.67;;;7.50;71.30;;;;;;5035581;28;20033;-77
2024/03/26 01:20:23;;;;;;;6.63;1.80;;;7.40;71.30;;;;;;5035825;28;20068;-77
2024/03/26 01:22:49;;;;;;;6.33;2.13;;;7.40;71.40;;;;;;5035636;28;20489;-77
2024/03/26 01:25:14;;;;;;;6.63;1.67;;;7.40;71.40;;;;;;5034455;28;20033;-77
2024/03/26 01:27:40;;;;;;;5.13;1.73;;;7.30;71.40;;;;;;5035576;28;20060;-77
2024/03/26 01:30:06;;;;;;;6.63;1.53;;;7.30;71.50;;;;;;5035650;28;20083;-77
2024/03/26 01:32:32;;;;;;;5.77;1.67;;;7.30;71.60;;;;;;5035507;28;20158;-77
2024/03/26 01:34:57;;;;;;;6.60;1.90;;;7.30;71.60;;;;;;5035662;28;20030;-77
2024/03/26 01:37:23;;;;;;;6.20;2.07;;;7.30;71.90;;;;;;5034118;28;20029;-77
2024/03/26 01:39:49;;;;;;;7.30;2.13;;;7.30;72.00;;;;;;5035494;28;20071;-77
2024/03/26 01:42:14;;;;;;;8.23;2.23;;;7.30;71.90;;;;;;5034225;28;20390;-77
2024/03/26 01:44:40;;;;;;;7.77;2.13;;;7.30;71.90;;;;;;5035062;28;20049;-77
2024/03/26 01:47:05;;;;;;;6.37;1.50;;;7.20;72.10;;;;;;5033898;28;20389;-77
2024/03/26 01:49:33;;;;;;;8.53;1.80;;;7.30;72.00;;;;;;5035631;28;20029;-77
2024/03/26 01:52:00;;;;;;;5.57;1.60;;;7.20;72.00;;;;;;5035349;28;20053;-77
2024/03/26 01:54:26;;;;;;;7.90;1.80;;;7.20;72.10;;;;;;5035010;28;20022;-77
2024/03/26 01:56:54;;;;;;;6.33;2.23;;;7.10;72.20;;;;;;5050559;28;20029;-77
2024/03/26 01:59:20;;;;;;;8.27;2.37;;;7.10;72.20;;;;;;5033830;28;20101;-77
2024/03/26 02:01:45;;;;;;;9.53;2.33;;;7.10;72.20;;;;;;5035072;28;20107;-77
2024/03/26 02:04:11;;;;;;;6.57;1.80;;;7.10;72.30;;;;;;5035026;28;20469;-77
2024/03/26 02:06:37;;;;;;;10.17;1.90;;;7.00;72.40;;;;;;5034921;28;20109;-77
2024/03/26 02:09:03;;;;;;;5.57;2.20;;;7.10;72.40;;;;;;5034852;28;20040;-76
2024/03/26 02:11:30;;;;;;;6.20;2.10;;;7.00;72.40;;;;;;5034756;28;20024;-77
2024/03/26 02:13:56;;;;;;;10.47;2.33;;;7.00;72.60;;;;;;5034636;28;20064;-77
2024/03/26 02:16:21;;;;;;;5.87;2.10;;;7.00;72.70;;;;;;5034970;28;20065;-77
2024/03/26 02:18:47;;;;;;;7.93;2.37;;;7.00;72.70;;;;;;5034501;28;20029;-77
2024/03/26 02:21:13;;;;;;;7.07;1.70;;;7.00;72.70;;;;;;5035059;28;20032;-76
2024/03/26 02:23:38;;;;;;;6.23;1.90;;;7.00;72.70;;;;;;5034868;28;20021;-77
2024/03/26 02:26:04;;;;;;;6.37;2.10;;;7.00;72.70;;;;;;5034816;28;20471;-77
2024/03/26 02:28:30;;;;;;;7.13;2.20;;;7.00;72.70;;;;;;5034338;28;20446;-77
2024/03/26 02:30:55;;;;;;;6.40;2.03;;;7.10;72.90;;;;;;5034242;28;20028;-77
2024/03/26 02:33:21;;;;;;;8.03;2.10;;;7.00;73.10;;;;;;5034543;28;20080;-77
2024/03/26 02:35:47;;;;;;;7.87;2.40;;;7.10;73.20;;;;;;5034387;28;20465;-77
2024/03/26 02:38:12;;;;;;;9.43;2.80;;;7.10;73.20;;;;;;5034292;28;20025;-77
2024/03/26 02:40:38;;;;;;;6.07;1.83;;;7.00;72.90;;;;;;5034236;28;20029;-77
2024/03/26 02:43:05;;;;;;;7.77;2.50;;;7.00;73.00;;;;;;5034076;28;20064;-78
2024/03/26 02:45:31;;;;;;;9.73;2.20;;;7.00;73.00;;;;;;5034016;28;20053;-79
2024/03/26 02:47:56;;;;;;;4.73;2.07;;;7.00;73.00;;;;;;5024722;28;20105;-78
2024/03/26 02:50:22;;;;;;;7.70;2.33;;;7.00;73.10;;;;;;5014090;28;20557;-76
2024/03/26 02:52:48;;;;;;;3.77;1.67;;;7.00;73.20;;;;;;5014206;28;20025;-79
2024/03/26 02:55:13;;;;;;;6.00;1.90;;;7.00;73.20;;;;;;5029508;28;20113;-78
2024/03/26 02:57:39;;;;;;;4.63;1.43;;;7.00;73.30;;;;;;5014543;28;20425;-78
2024/03/26 03:00:05;;;;;;;7.80;1.70;;;7.00;73.30;;;;;;5014245;28;20050;-78
2024/03/26 03:02:32;;;;;;;9.43;2.03;;;7.00;73.30;;;;;;5012794;28;20018;-76
2024/03/26 03:04:58;;;;;;;8.93;2.57;;;7.00;73.50;;;;;;5014111;28;20034;-76
2024/03/26 03:07:23;;;;;;;9.30;2.00;;;7.00;73.40;;;;;;5024255;28;20528;-76
2024/03/26 03:09:49;;;;;;;4.33;1.73;;;6.90;73.50;;;;;;5028893;28;20025;-76
2024/03/26 03:12:15;;;;;;;5.77;2.03;;;6.90;73.50;;;;;;5033740;28;20021;-76
2024/03/26 03:14:40;;;;;;;5.17;1.50;;;6.90;73.50;;;;;;5032464;28;20363;-77
2024/03/26 03:17:06;;;;;;;6.87;2.30;;;6.90;73.60;;;;;;5033412;28;20096;-77
2024/03/26 03:19:32;;;;;;;6.03;1.73;;;6.90;73.70;;;;;;5033451;28;20079;-77
2024/03/26 03:21:57;;;;;;;7.30;1.83;;;6.90;73.80;;;;;;5033575;28;20025;-77
2024/03/26 03:24:23;;;;;;;8.77;2.43;;;6.80;73.80;;;;;;5033756;28;20535;-77
2024/03/26 03:26:48;;;;;;;11.73;2.13;;;6.90;73.90;;;;;;5033335;28;20048;-77
2024/03/26 03:29:14;;;;;;;5.03;1.93;;;6.90;74.00;;;;;;5033237;28;20025;-77
2024/03/26 03:31:40;;;;;;;8.10;1.87;;;6.90;74.00;;;;;;5032829;28;20381;-77
2024/03/26 03:34:05;;;;;;;7.30;2.20;;;6.80;74.00;;;;;;5033262;28;20018;-78
2024/03/26 03:36:31;;;;;;;9.90;1.77;;;6.80;74.00;;;;;;5033355;28;20024;-77
2024/03/26 03:38:57;;;;;;;11.53;1.87;;;6.80;74.10;;;;;;5033087;28;20100;-77
2024/03/26 03:41:22;;;;;;;7.23;1.70;;;6.70;74.10;;;;;;5033242;28;20104;-78
2024/03/26 03:43:48;;;;;;;5.03;2.17;;;6.80;74.30;;;;;;5033457;28;20052;-77
2024/03/26 03:46:13;;;;;;;5.20;1.87;;;6.80;74.30;;;;;;5033112;28;20117;-78
2024/03/26 03:48:39;;;;;;;6.70;2.33;;;6.70;75.00;;;;;;5032768;28;20030;-78
2024/03/26 03:51:05;;;;;;;8.50;2.30;;;6.70;74.40;;;;;;5033882;28;20021;-78
2024/03/26 03:53:30;;;;;;;8.60;2.60;;;6.70;74.40;;;;;;5033520;28;20057;-78
2024/03/26 03:55:56;;;;;;;5.93;1.97;;;6.70;74.50;;;;;;5031544;28;20101;-77
2024/03/26 03:58:22;;;;;;;7.47;1.97;;;6.70;74.50;;;;;;5032953;28;20045;-77
2024/03/26 04:00:47;;;;;;;4.97;1.73;;;6.60;74.50;;;;;;5033291;28;20034;-77
2024/03/26 04:03:13;;;;;;;5.17;1.70;;;6.70;74.80;;;;;;5032865;28;20033;-78
2024/03/26 04:05:39;;;;;;;6.67;2.10;;;6.60;74.70;;;;;;5032816;28;20025;-78
2024/03/26 04:08:06;;;;;;;8.13;1.83;;;6.50;74.60;;;;;;5032946;28;20025;-77
2024/03/26 04:10:31;;;;;;;10.07;2.53;;;6.50;74.70;;;;;;5031253;28;20045;-78
2024/03/26 04:12:57;;;;;;;6.03;1.90;;;6.50;74.80;;;;;;5033304;28;20103;-77
2024/03/26 04:15:23;;;;;;;7.50;2.30;;;6.50;74.90;;;;;;5032775;28;20045;-78
2024/03/26 04:17:52;;;;;;;6.87;2.27;;;6.40;75.00;;;;;;5032211;28;20491;-77
2024/03/26 04:20:18;;;;;;;4.87;1.63;;;6.50;75.20;;;;;;5032819;28;20029;-77
2024/03/26 04:22:47;;;;;;;6.67;2.20;;;6.40;75.10;;;;;;5032756;28;20473;-78
2024/03/26 04:25:14;;;;;;;6.53;2.10;;;6.50;75.20;;;;;;5032596;28;20457;-77
2024/03/26 04:27:39;;;;;;;7.27;1.80;;;6.40;75.10;;;;;;5032532;28;20033;-77
2024/03/26 04:30:06;;;;;;;5.60;2.10;;;6.40;75.10;;;;;;5032562;28;20025;-77
2024/03/26 04:32:33;;;;;;;7.90;1.90;;;6.30;75.10;;;;;;5032452;28;20021;-76
2024/03/26 04:34:58;;;;;;;8.50;1.90;;;6.30;75.20;;;;;;5032744;28;20017;-77
2024/03/26 04:37:27;;;;;;;5.67;2.07;;;6.30;75.30;;;;;;5032719;28;20026;-77
2024/03/26 04:39:53;;;;;;;7.13;2.80;;;6.30;75.40;;;;;;5032322;28;20101;-77
2024/03/26 04:42:19;;;;;;;9.23;1.80;;;6.20;75.30;;;;;;5034098;28;20112;-77
2024/03/26 04:44:45;;;;;;;7.13;2.07;;;6.20;75.30;;;;;;5035064;28;20116;-76
2024/03/26 04:47:10;;;;;;;6.33;1.80;;;6.20;75.40;;;;;;5036521;28;20121;-77
2024/03/26 04:49:36;;;;;;;7.83;2.00;;;6.20;75.50;;;;;;5036716;28;20029;-77
2024/03/26 04:52:01;;;;;;;6.90;1.80;;;6.10;75.50;;;;;;5036003;28;20064;-77
2024/03/26 04:54:28;;;;;;;5.03;1.87;;;6.10;75.60;;;;;;5035140;28;20014;-77
2024/03/26 04:56:54;;;;;;;5.60;2.03;;;6.10;75.70;;;;;;5036621;28;20057;-77
2024/03/26 04:59:20;;;;;;;6.03;1.80;;;6.10;75.70;;;;;;5036217;28;20013;-77
2024/03/26 05:01:45;;;;;;;7.37;2.03;;;6.00;75.70;;;;;;5036268;28;20028;-77
2024/03/26 05:04:11;;;;;;;6.07;1.90;;;6.00;75.80;;;;;;5036145;28;20061;-76
2024/03/26 05:06:36;;;;;;;11.40;2.40;;;6.00;75.90;;;;;;5032621;28;20037;-77
2024/03/26 05:09:04;;;;;;;7.73;2.23;;;6.10;76.10;;;;;;5022699;28;20036;-77
2024/03/26 05:11:30;;;;;;;7.57;1.87;;;5.90;76.00;;;;;;5034373;28;20017;-77
2024/03/26 05:13:55;;;;;;;3.93;1.37;;;5.90;76.10;;;;;;5034720;28;20063;-77
2024/03/26 05:16:21;;;;;;;6.27;2.30;;;5.90;76.10;;;;;;5035385;28;20028;-77
2024/03/26 05:18:47;;;;;;;6.63;1.70;;;5.90;76.30;;;;;;5035833;28;20026;-77
2024/03/26 05:21:13;;;;;;;6.47;1.80;;;5.90;76.40;;;;;;5035838;28;20077;-77
2024/03/26 05:23:39;;;;;;;5.80;1.70;;;5.80;76.30;;;;;;5034832;28;20466;-77
2024/03/26 05:26:04;;;;;;;7.47;1.70;;;5.80;77.00;;;;;;5034490;28;20021;-77
2024/03/26 05:28:30;;;;;;;9.57;2.17;;;5.90;76.60;;;;;;5035347;28;20025;-77
2024/03/26 05:31:14;;;;;;;6.43;1.97;;;5.80;76.60;;;;;;5035493;28;20393;-77
2024/03/26 05:33:39;;;;;;;6.10;2.03;;;5.80;76.70;;;;;;5034511;28;20053;-77
2024/03/26 05:36:05;;;;;;;7.33;2.13;;;5.80;76.70;;;;;;5035593;28;20064;-78
2024/03/26 05:38:31;;;;;;;9.60;1.90;;;5.80;76.80;;;;;;5035597;28;20026;-77
2024/03/26 05:40:56;;;;;;;6.30;1.60;;;5.70;76.90;;;;;;5034167;28;20108;-77
2024/03/26 05:43:22;;;;;;;5.00;2.50;;;5.80;77.00;;;;;;5035359;28;20366;-76
2024/03/26 05:45:48;;;;;;;9.00;1.57;;;5.70;76.90;;;;;;5034017;28;20041;-77
2024/03/26 05:48:13;;;;;;;6.27;1.90;;;5.80;77.10;;;;;;5034060;28;20477;-77
2024/03/26 05:50:39;;;;;;;8.63;2.33;;;5.70;77.10;;;;;;5035155;28;20410;-77
2024/03/26 05:53:06;;;;;;;4.93;1.83;;;5.80;77.20;;;;;;5033435;28;20024;-79
2024/03/26 05:55:32;;;;;;;7.07;2.43;;;5.80;77.30;;;;;;5035041;28;20022;-77
2024/03/26 05:57:58;;;;;;;8.13;1.70;;;5.80;77.40;;;;;;5033735;28;20018;-77
2024/03/26 06:00:23;;;;;;;10.10;2.70;;;5.80;77.50;;;;;;5035043;28;20519;-78
2024/03/26 06:02:49;;;;;;;8.70;2.00;;;5.90;77.60;;;;;;5033577;28;20017;-78
2024/03/26 06:05:15;;;;;;;7.83;2.30;;;5.80;77.60;;;;;;5034999;28;20374;-78
2024/03/26 06:07:40;;;;;;;5.37;1.90;;;5.80;77.60;;;;;;5035231;28;20021;-78
2024/03/26 06:10:06;;;;;;;4.63;1.70;;;5.80;77.60;;;;;;5035028;28;20096;-77
2024/03/26 06:12:32;;;;;;;5.67;1.90;;;5.90;77.70;;;;;;5033630;28;20361;-77
2024/03/26 06:14:57;;;;;;;9.10;1.80;;;5.90;77.70;;;;;;5033454;28;20032;-77
2024/03/26 06:17:23;;;;;;;6.13;2.40;;;5.90;77.80;;;;;;5034880;28;20480;-77
2024/03/26 06:19:49;;;;;;;6.90;2.17;;;5.90;77.80;;;;;;5035086;28;20060;-77
2024/03/26 06:22:15;;;;;;;8.10;1.93;;;6.00;77.90;;;;;;5033213;28;20071;-77
2024/03/26 06:24:40;;;;;;;6.57;2.13;;;6.00;78.00;;;;;;5033443;28;20470;-77
2024/03/26 06:27:07;;;;;;;10.37;2.60;;;6.00;77.90;;;;;;5034116;28;20034;-78
2024/03/26 06:29:33;;;;;;;6.77;2.10;;;6.10;78.00;;;;;;5034644;28;20032;-78
2024/03/26 06:31:58;;;;;;;5.83;2.23;;;6.10;77.90;;;;;;5034438;28;20394;-78
2024/03/26 06:34:24;;;;;;;5.53;2.20;;;6.10;77.90;;;;;;5034392;28;20393;-78
2024/03/26 06:36:50;;;;;;;6.40;2.07;;;6.20;78.00;;;;;;5033339;28;20021;-79
2024/03/26 06:39:18;;;;;;;5.53;2.10;;;6.20;77.90;;;;;;5034265;28;20100;-79
2024/03/26 06:41:44;;;;;;;5.87;2.07;;;6.20;77.90;;;;;;5034214;28;20018;-79
2024/03/26 06:44:09;;;;;;;5.23;1.67;;;6.40;78.10;;;;;;5034356;28;20048;-79
2024/03/26 06:46:35;;;;;;;5.23;1.60;;;6.40;78.10;;;;;;5033022;28;20097;-79
2024/03/26 06:49:01;;;;;;;8.17;2.23;;;6.40;78.00;;;;;;5033888;28;20049;-79
2024/03/26 06:51:26;;;;;;;6.10;2.37;;;6.50;78.00;;;;;;5034145;28;20087;-80
2024/03/26 06:53:52;;;;;;;4.80;1.70;;;6.50;77.90;;;;;;5034925;28;20025;-79
2024/03/26 06:56:18;;;;;;;7.33;2.17;;;6.50;77.90;;;;;;5033994;28;20030;-80
2024/03/26 06:58:45;;;;;;;5.63;1.83;;;6.60;77.90;;;;;;5032784;28;20092;-79
2024/03/26 07:01:11;;;;;;;6.83;2.03;;;6.60;77.90;;;;;;5034047;28;20389;-79
2024/03/26 07:03:36;;;;;;;7.17;2.00;;;6.70;77.90;;;;;;5032372;28;20033;-79
2024/03/26 07:06:04;;;;;;;6.73;2.20;;;6.70;77.90;;;;;;5032774;28;20034;-80
2024/03/26 07:08:31;;;;;;;6.20;2.00;;;6.80;77.90;;;;;;5034029;28;20385;-79
2024/03/26 07:10:57;;;;;;;7.70;2.17;;;6.80;77.80;;;;;;5033325;28;20033;-80
2024/03/26 07:13:26;;;;;;;7.03;2.00;;;6.90;77.70;;;;;;5033630;28;20104;-80
2024/03/26 07:15:53;;;;;;;5.33;1.90;;;7.00;77.70;;;;;;5032367;28;20018;-79
2024/03/26 07:18:19;;;;;;;7.60;1.93;;;7.00;77.70;;;;;;5033177;28;20028;-79
2024/03/26 07:20:45;;;;;;;6.07;2.00;;;7.10;77.60;;;;;;5033525;28;20021;-79
2024/03/26 07:23:11;;;;;;;5.27;1.57;;;7.20;77.50;;;;;;5032510;28;20421;-80
2024/03/26 07:25:36;;;;;;;5.23;1.93;;;7.20;77.40;;;;;;5033045;28;20026;-79
2024/03/26 07:28:02;;;;;;;7.17;2.13;;;7.30;77.40;;;;;;5033101;28;20030;-80
2024/03/26 07:30:28;;;;;;;5.10;1.73;;;7.40;77.30;;;;;;5033117;28;20062;-79
2024/03/26 07:32:54;;;;;;;6.57;2.13;;;7.60;77.30;;;;;;5032932;28;20025;-80
2024/03/26 07:35:20;;;;;;;7.30;2.53;;;7.50;77.20;;;;;;5033567;28;20022;-80
2024/03/26 07:37:45;;;;;;;6.90;2.40;;;7.60;77.00;;;;;;5033359;28;20535;-80
2024/03/26 07:40:11;;;;;;;9.43;2.70;;;7.70;77.00;;;;;;5032209;28;20033;-80
2024/03/26 07:42:37;;;;;;;6.60;2.10;;;7.80;76.90;;;;;;5032978;28;20021;-80
2024/03/26 07:45:03;;;;;;;6.87;2.57;;;7.80;76.70;;;;;;5032788;28;20045;-79
2024/03/26 07:47:29;;;;;;;4.70;1.77;;;7.90;76.60;;;;;;5031945;28;20037;-80
2024/03/26 07:49:56;;;;;;;6.60;2.20;;;8.00;76.60;;;;;;5033036;28;20033;-80
2024/03/26 07:52:21;;;;;;;4.60;1.90;;;8.00;76.40;;;;;;5032092;28;20465;-80
2024/03/26 07:54:47;;;;;;;6.10;2.03;;;8.10;76.40;;;;;;5033080;28;20034;-80
2024/03/26 07:57:12;;;;;;;4.80;2.27;;;8.20;76.40;;;;;;5033033;28;20036;-79
2024/03/26 07:59:38;;;;;;;5.07;1.73;;;8.30;76.20;;;;;;5031617;28;20359;-79
2024/03/26 08:02:04;;;;;;;5.00;2.10;;;8.30;76.20;;;;;;5033224;28;20068;-80
2024/03/26 08:04:30;;;;;;;6.47;2.17;;;8.40;76.20;;;;;;5032967;28;20104;-80
2024/03/26 08:06:55;;;;;;;6.40;2.17;;;8.40;76.00;;;;;;5032894;28;20541;-80
2024/03/26 08:09:21;;;;;;;6.27;1.90;;;8.50;75.80;;;;;;5031440;28;20022;-79
2024/03/26 08:11:47;;;;;;;8.20;2.73;;;8.60;75.60;;;;;;5032653;28;20060;-80
2024/03/26 08:14:12;;;;;;;4.70;2.03;;;8.60;75.50;;;;;;5031308;28;20022;-79
2024/03/26 08:16:38;;;;;;;6.40;2.20;;;8.70;75.60;;;;;;5031230;28;20435;-79
2024/03/26 08:19:03;;;;;;;5.13;2.07;;;8.80;75.50;;;;;;5032608;28;20037;-79
2024/03/26 08:21:29;;;;;;;6.17;1.87;;;9.00;75.40;;;;;;5033241;28;20075;-79
2024/03/26 08:23:54;;;;;;;5.13;2.00;;;9.00;75.20;;;;;;5033093;28;20030;-79
2024/03/26 08:26:20;;;;;;;4.03;1.70;;;9.10;74.90;;;;;;5031555;28;20145;-79
2024/03/26 08:28:46;;;;;;;5.23;2.13;;;9.10;74.80;;;;;;5031404;28;20465;-79
2024/03/26 08:31:11;;;;;;;6.13;2.00;;;9.20;74.60;;;;;;5030909;28;20030;-79
2024/03/26 08:33:37;;;;;;;8.33;2.17;;;9.40;74.60;;;;;;5032659;28;20030;-80
2024/03/26 08:36:05;;;;;;;7.60;2.17;;;9.20;74.30;;;;;;5031275;28;20536;-79
2024/03/26 08:38:31;;;;;;;6.30;2.40;;;9.40;74.10;;;;;;5032555;28;20030;-80
2024/03/26 08:40:57;;;;;;;4.93;2.33;;;9.40;73.50;;;;;;5032735;28;20393;-79
2024/03/26 08:43:23;;;;;;;9.87;2.67;;;9.50;73.30;;;;;;5032471;28;20096;-79
2024/03/26 08:45:49;;;;;;;8.20;2.37;;;9.50;73.30;;;;;;5031784;28;20125;-79
2024/03/26 08:48:14;;;;;;;6.23;2.40;;;9.50;73.10;;;;;;5032496;28;20049;-80
2024/03/26 08:50:40;;;;;;;7.43;2.50;;;9.60;73.10;;;;;;5032562;28;20068;-79
2024/03/26 08:53:06;;;;;;;6.23;2.07;;;9.60;73.10;;;;;;5032202;28;20025;-80
2024/03/26 08:55:32;;;;;;;4.20;2.00;;;9.70;73.20;;;;;;5031176;28;20025;-80
2024/03/26 08:57:58;;;;;;;5.83;2.37;;;9.70;72.80;;;;;;5031998;28;20512;-79
2024/03/26 09:00:23;;;;;;;5.20;2.23;;;9.80;72.50;;;;;;5032209;28;20061;-79
2024/03/26 09:02:49;;;;;;;5.30;2.40;;;9.80;72.60;;;;;;5031136;28;20458;-80
2024/03/26 09:05:15;;;;;;;9.33;2.30;;;9.90;73.20;;;;;;5032512;28;20109;-79
2024/03/26 09:07:40;;;;;;;8.97;2.63;;;9.90;72.50;;;;;;5032096;28;20029;-79
2024/03/26 09:10:06;;;;;;;6.13;2.63;;;10.00;72.50;;;;;;5030854;28;20022;-80
2024/03/26 09:12:36;;;;;;;5.77;2.10;;;10.00;72.40;;;;;;5030697;28;20014;-79
2024/03/26 09:15:02;;;;;;;6.93;2.10;;;10.10;72.20;;;;;;5032142;28;20112;-79
2024/03/26 09:17:27;;;;;;;7.77;2.80;;;10.10;72.10;;;;;;5032312;28;20068;-78
2024/03/26 09:19:53;;;;;;;11.32;2.78;;;10.20;71.90;;;;;;5031718;28;20038;-79
2024/03/26 09:22:19;;;;;;;5.87;2.23;;;10.20;71.60;;;;;;5030676;28;20022;-78
2024/03/26 09:24:44;;;;;;;6.60;2.58;;;10.30;71.60;;;;;;5031013;28;20028;-79
2024/03/26 09:27:10;;;;;;;6.50;2.57;;;10.30;71.70;;;;;;5032002;28;20052;-79
2024/03/26 09:29:35;;;;;;;5.32;2.10;;;10.30;71.80;;;;;;5033814;28;20075;-79
2024/03/26 09:32:02;;;;;;;6.88;2.58;;;10.40;71.30;;;;;;5035082;28;20025;-80
2024/03/26 09:34:27;;;;;;;6.20;2.08;;;10.30;71.40;;;;;;5035390;28;20068;-79
2024/03/26 09:36:54;;;;;;;6.30;2.38;;;10.40;71.50;;;;;;5034236;28;20425;-80
2024/03/26 09:39:20;;;;;;;8.60;2.17;;;10.50;71.40;;;;;;5035634;28;20018;-79
2024/03/26 09:41:48;;;;;;;5.28;2.25;;;10.40;71.20;;;;;;5035403;28;20366;-79
2024/03/26 09:44:14;;;;;;;8.82;2.25;;;10.60;71.40;;;;;;5035056;28;20042;-79
2024/03/26 09:46:40;;;;;;;5.70;2.43;;;10.60;71.40;;;;;;5034273;28;20040;-80
2024/03/26 09:49:08;;;;;;;7.75;2.00;;;10.70;71.20;;;;;;5035248;28;20029;-80
2024/03/26 09:51:37;;;;;;;10.38;2.75;;;10.80;71.20;;;;;;5035679;28;20052;-80
2024/03/26 09:54:03;;;;;;;5.95;1.98;;;10.90;71.10;;;;;;5035464;28;20109;-80
2024/03/26 09:56:29;;;;;;;6.35;2.17;;;10.90;70.90;;;;;;5035063;28;20061;-80
2024/03/26 09:58:54;;;;;;;6.50;2.13;;;11.00;70.90;;;;;;5033871;28;20061;-78
2024/03/26 10:01:25;;;;;;;5.93;2.20;;;11.10;70.90;;;;;;5033870;28;20138;-80
2024/03/26 10:03:52;;;;;;;5.30;2.10;;;11.10;70.80;;;;;;5034729;28;20033;-80
2024/03/26 10:06:22;;;;;;;7.18;2.05;;;11.20;70.80;;;;;;5035235;28;20541;-80
2024/03/26 10:08:48;;;;;;;6.32;2.17;;;11.20;70.80;;;;;;5035012;28;20044;-80
2024/03/26 10:11:14;;;;;;;5.35;2.00;;;11.20;70.70;;;;;;5035101;28;20029;-79
2024/03/26 10:13:40;;;;;;;7.43;2.25;;;11.30;71.30;;;;;;5035010;28;20482;-79
2024/03/26 10:16:06;;;;;;;5.43;2.17;;;11.30;70.50;;;;;;5034938;28;20071;-79
2024/03/26 10:18:31;;;;;;;6.47;2.15;;;11.40;70.60;;;;;;5034544;28;20109;-80
2024/03/26 10:20:58;;;;;;;6.53;2.47;;;11.50;70.20;;;;;;5034919;28;20036;-79
2024/03/26 10:23:26;;;;;;;5.43;2.20;;;11.50;70.10;;;;;;5033599;28;20059;-78
2024/03/26 10:25:51;;;;;;;7.47;2.60;;;11.60;70.10;;;;;;5033246;28;20112;-80
2024/03/26 10:28:17;;;;;;;6.70;2.25;;;11.60;70.00;;;;;;5033445;28;20113;-80
2024/03/26 10:30:43;;;;;;;5.13;1.90;;;11.70;70.00;;;;;;5032957;28;20036;-79
2024/03/26 10:33:10;;;;;;;7.63;2.17;;;11.70;69.80;;;;;;5034325;28;20032;-80
2024/03/26 10:35:37;;;;;;;10.63;2.47;;;11.80;69.20;;;;;;5034372;28;20022;-80
2024/03/26 10:38:06;;;;;;;7.88;2.20;;;11.80;69.60;;;;;;5034575;28;20029;-80
2024/03/26 10:40:36;;;;;;;6.45;2.10;;;11.80;69.60;;;;;;5034327;28;20044;-80
2024/03/26 10:43:02;;;;;;;4.88;2.00;;;11.90;69.40;;;;;;5034226;28;20371;-79
2024/03/26 10:45:28;;;;;;;4.55;2.00;;;11.90;69.30;;;;;;5034240;28;20045;-79
2024/03/26 10:47:55;;;;;;;6.78;2.10;;;11.90;69.30;;;;;;5033979;28;20034;-79
2024/03/26 10:50:22;;;;;;;5.10;2.33;;;12.00;69.70;;;;;;5032710;28;20072;-79
2024/03/26 10:52:48;;;;;;;4.13;1.52;;;12.00;69.10;;;;;;5034227;28;20032;-79
2024/03/26 10:55:15;;;;;;;9.82;1.73;;;12.10;69.00;;;;;;5034012;28;20489;-80
2024/03/26 10:57:42;;;;;;;6.25;2.00;;;12.10;69.00;;;;;;5033731;28;20025;-81
2024/03/26 11:00:10;;;;;;;4.68;1.65;;;12.20;68.80;;;;;;5032792;28;20026;-80
2024/03/26 11:02:39;;;;;;;3.40;1.50;;;12.20;69.20;;;;;;5033754;28;20032;-80
2024/03/26 11:05:07;;;;;;;5.30;1.88;;;12.30;68.40;;;;;;5032451;28;20032;-78
2024/03/26 11:07:34;;;;;;;3.33;1.38;;;12.30;67.60;;;;;;5033871;28;20393;-78
2024/03/26 11:10:07;;;;;;;3.53;1.08;;;12.30;67.60;;;;;;5033552;28;20520;-80
2024/03/26 11:12:37;;;;;;;6.80;1.77;;;12.40;67.30;;;;;;5033736;28;20026;-79
2024/03/26 11:15:15;;;;;;;4.60;1.95;;;12.40;66.60;;;;;;5033391;28;20028;-80
2024/03/26 11:18:02;;;;;;;6.47;1.48;;;12.50;66.80;;;;;;5033346;28;20196;-79
2024/03/26 11:20:30;;;;;;;4.15;1.90;;;12.50;66.60;;;;;;5033689;28;20030;-79
2024/03/26 11:23:06;;;;;;;3.97;1.48;;;12.50;66.60;;;;;;5033936;28;20036;-79
2024/03/26 11:25:34;;;;;;;3.70;1.23;;;12.60;66.70;;;;;;5032429;28;20029;-78
2024/03/26 11:28:02;;;;;;;4.63;1.50;;;12.70;66.80;;;;;;5033532;28;20124;-79
2024/03/26 11:30:29;;;;;;;4.45;1.40;;;12.70;66.60;;;;;;5032135;28;20477;-79
2024/03/26 11:32:56;;;;;;;6.95;1.30;;;12.90;66.70;;;;;;5033176;28;20469;-79
2024/03/26 11:35:27;;;;;;;3.88;1.30;;;13.00;66.60;;;;;;5033816;28;20377;-80
2024/03/26 11:37:56;;;;;;;5.43;1.40;;;13.20;66.70;;;;;;5033327;28;20540;-80
2024/03/26 11:40:23;;;;;;;4.45;1.50;;;13.30;66.40;;;;;;5031953;28;20470;-80
2024/03/26 11:42:50;;;;;;;4.65;1.10;;;13.50;66.40;;;;;;5031865;28;20036;-80
2024/03/26 11:45:16;;;;;;;5.55;1.92;;;13.60;66.20;;;;;;5031946;28;20474;-80
2024/03/26 11:47:43;;;;;;;6.55;1.55;;;13.80;65.90;;;;;;5032961;28;20109;-80
2024/03/26 11:50:10;;;;;;;5.95;1.48;;;14.00;65.80;;;;;;5032840;28;20036;-80
2024/03/26 11:52:37;;;;;;;3.05;1.27;;;14.10;65.60;;;;;;5032573;28;20025;-80
2024/03/26 11:55:04;;;;;;;5.72;1.85;;;14.40;65.10;;;;;;5033219;28;20049;-80
2024/03/26 11:57:30;;;;;;;4.60;1.50;;;14.60;65.00;;;;;;5031552;28;20032;-81
2024/03/26 11:59:56;;;;;;;5.90;1.30;;;14.70;64.00;;;;;;5032881;28;20029;-81
2024/03/26 12:02:22;;;;;;;3.15;1.30;;;14.80;63.90;;;;;;5032899;28;20025;-79
2024/03/26 12:04:47;;;;;;;6.03;1.20;;;14.90;64.10;;;;;;5032892;28;20030;-79
2024/03/26 12:07:20;;;;;;;6.07;1.35;;;15.10;64.90;;;;;;5032857;28;20021;-80
2024/03/26 12:09:46;;;;;;;4.78;1.48;;;15.30;63.40;;;;;;5032658;28;20028;-79
2024/03/26 12:12:12;;;;;;;3.75;1.40;;;15.30;62.60;;;;;;5031676;28;20022;-79
2024/03/26 12:14:41;;;;;;;4.25;1.52;;;15.30;61.80;;;;;;5033001;28;20486;-79
2024/03/26 12:17:07;;;;;;;3.85;1.58;;;15.20;61.90;;;;;;5031582;28;20014;-80
2024/03/26 12:19:34;;;;;;;3.67;1.05;;;15.20;61.60;;;;;;5031614;28;20363;-80
2024/03/26 12:22:10;;;;;;;4.68;1.30;;;15.20;61.80;;;;;;5031560;28;20511;-79
2024/03/26 12:24:36;;;;;;;7.78;1.27;;;15.10;61.80;;;;;;5031372;28;20025;-80
2024/03/26 12:27:03;;;;;;;4.32;1.30;;;15.10;61.80;;;;;;5031288;28;20022;-80
2024/03/26 12:29:29;;;;;;;4.75;1.50;;;15.00;61.80;;;;;;5032514;28;20057;-80
2024/03/26 12:31:54;;;;;;;6.30;1.48;;;15.00;62.00;;;;;;5032605;28;20061;-80
2024/03/26 12:34:20;;;;;;;6.20;2.00;;;15.10;62.40;;;;;;5032864;28;20035;-80
2024/03/26 12:36:46;;;;;;;4.68;1.40;;;15.10;62.30;;;;;;5032191;28;20030;-79
2024/03/26 12:39:12;;;;;;;4.60;1.50;;;15.10;62.30;;;;;;5031384;28;20021;-80
2024/03/26 12:41:38;;;;;;;4.95;1.58;;;15.30;62.80;;;;;;5032682;28;20076;-80
2024/03/26 12:44:09;;;;;;;5.20;2.05;;;15.40;62.90;;;;;;5032280;28;20057;-80
2024/03/26 12:46:35;;;;;;;5.55;1.58;;;15.70;62.70;;;;;;5032152;28;20041;-80
2024/03/26 12:49:04;;;;;;;5.07;1.95;;;15.80;62.70;;;;;;5031192;28;20044;-80